Harleysville, Pennsylvania
Current Conditions -  °F | °C
As of 12:54 AM on Thursday 29 Jan 2015 (Local Time) from KPTW Reporting Station
Clear Clear  
Wind Chill: 18°   Ceiling: Unl
Heat Index: 18°   Visibility: 10mi
Dew Point:   Wind: 3mph
Humidity: 48%   Direction: 330°NNW
Pressure: 30.3"   Gusts: NA
Location:  40.28°N, 75.39°W
Report Text: KPTW 290554Z AUTO 33003KT 10SM CLR M08/M17 A3030 RMK AO2 SLP264 T10781172 11033 21106 50002
Loading
Personal Weather Stations






























Interactive Weather Map New forecast layout! Learn more

10-Day Weather Forecast

Advertisements
Track Severe Weather on mobile